Time;durP1;ratioP1;P1;durP2;ratioP2;P2;SDS_P1;SDS_P2;PMS_P1;PMS_P2;Temp;Humidity;BMP_temperature;BMP_pressure;BME280_temperature;BME280_humidity;BME280_pressure;Samples;Min_cycle;Max_cycle;Signal;HPM_P1;HPM_P2
2022/08/26 00:01:51;;;;;;;;;;;;;;;19.29;57.36;99853.25;4934803;29;19931;-82
2022/08/26 00:04:20;;;;;;;;;;;;;;;19.30;57.72;99851.34;4934775;29;20313;-82
2022/08/26 00:06:47;;;;;;;;;;;;;;;19.30;57.66;99845.88;4933797;29;19931;-83
2022/08/26 00:09:14;;;;;;;;;;;;;;;19.32;57.64;99849.97;4965434;28;19935;-82
2022/08/26 00:11:42;;;;;;;;;;;;;;;19.32;57.65;99839.03;4965401;28;19931;-83
2022/08/26 00:14:09;;;;;;;;;;;;;;;19.28;57.79;99841.50;4934372;29;19931;-83
2022/08/26 00:16:36;;;;;;;;;;;;;;;19.27;58.04;99841.78;4934778;29;20034;-82
2022/08/26 00:19:13;;;;;;;;;;;;;;;19.26;57.89;99837.41;4965357;28;19930;-83
2022/08/26 00:21:40;;;;;;;;;;;;;;;19.25;58.27;99842.06;4933609;29;19937;-83
2022/08/26 00:24:07;;;;;;;;;;;;;;;19.23;58.33;99841.53;4934639;29;19969;-81
2022/08/26 00:26:35;;;;;;;;;;;;;;;19.22;58.12;99842.63;4948998;29;19935;-83
2022/08/26 00:29:02;;;;;;;;;;;;;;;19.19;58.34;99845.09;4949692;28;19931;-83
2022/08/26 00:31:30;;;;;;;;;;;;;;;19.17;58.43;99841.84;4934441;29;20310;-83
2022/08/26 00:33:57;;;;;;;;;;;;;;;19.17;58.47;99845.41;4934341;29;20055;-83
2022/08/26 00:36:25;;;;;;;;;;;;;;;19.20;58.42;99846.75;4934387;29;19934;-83
2022/08/26 00:38:57;;;;;;;;;;;;;;;19.28;58.13;99844.22;4918054;29;20034;-81
2022/08/26 00:41:24;;;;;;;;;;;;;;;19.30;58.23;99848.63;4933537;29;20444;-82
2022/08/26 00:43:51;;;;;;;;;;;;;;;19.28;58.33;99849.69;4935108;29;19978;-82
2022/08/26 00:46:20;;;;;;;;;;;;;;;19.24;58.68;99847.81;4934453;29;19931;-83
2022/08/26 00:48:49;;;;;;;;;;;;;;;19.26;58.62;99851.09;4917692;29;20025;-84
2022/08/26 00:51:17;;;;;;;;;;;;;;;19.31;58.57;99848.31;4934139;29;19962;-82
2022/08/26 00:53:45;;;;;;;;;;;;;;;19.31;59.12;99850.25;4917509;29;19977;-83
2022/08/26 00:56:21;;;;;;;;;;;;;;;19.28;59.26;99846.16;4934179;29;20304;-84
2022/08/26 00:58:49;;;;;;;;;;;;;;;19.25;58.92;99849.47;4933579;29;19941;-83
2022/08/26 01:01:16;;;;;;;;;;;;;;;19.23;58.98;99843.44;4933116;29;19997;-84
2022/08/26 01:03:43;;;;;;;;;;;;;;;19.23;58.79;99847.00;4933512;29;19931;-83
2022/08/26 01:06:12;;;;;;;;;;;;;;;19.19;59.11;99845.94;4936698;29;19981;-82
2022/08/26 01:08:39;;;;;;;;;;;;;;;19.19;59.43;99847.84;4920890;29;20350;-82
2022/08/26 01:11:06;;;;;;;;;;;;;;;19.21;59.15;99845.63;4920678;29;19930;-82
2022/08/26 01:13:33;;;;;;;;;;;;;;;19.19;59.24;99845.09;4938004;29;20033;-83
2022/08/26 01:16:01;;;;;;;;;;;;;;;19.17;59.25;99850.06;4937916;29;19983;-82
2022/08/26 01:18:28;;;;;;;;;;;;;;;19.16;59.22;99841.00;4936620;29;20317;-83
2022/08/26 01:21:31;;;;;;;;;;;;;;;19.13;59.17;99844.31;4936524;29;19966;-83
2022/08/26 01:23:58;;;;;;;;;;;;;;;19.11;59.04;99845.69;4916463;29;20001;-83
2022/08/26 01:26:29;;;;;;;;;;;;;;;19.12;59.13;99845.41;4900730;29;19931;-82
2022/08/26 01:29:17;;;;;;;;;;;;;;;19.13;59.14;99843.50;4916077;29;19931;-81
2022/08/26 01:31:47;;;;;;;;;;;;;;;19.10;59.13;99844.06;4916062;29;19972;-82
2022/08/26 01:34:14;;;;;;;;;;;;;;;19.10;59.24;99853.09;4915587;29;19935;-82
2022/08/26 01:36:41;;;;;;;;;;;;;;;19.11;59.26;99840.22;4916033;29;19938;-81
2022/08/26 01:39:12;;;;;;;;;;;;;;;19.13;59.14;99843.50;4916081;29;19938;-83
2022/08/26 01:41:39;;;;;;;;;;;;;;;19.10;59.06;99841.31;4900201;29;19938;-82
2022/08/26 01:44:12;;;;;;;;;;;;;;;19.11;59.08;99840.22;4900773;29;20045;-83
2022/08/26 01:46:39;;;;;;;;;;;;;;;19.11;59.02;99842.94;4900136;29;19931;-84
2022/08/26 01:49:07;;;;;;;;;;;;;;;19.11;59.05;99845.69;4915793;29;19977;-82
2022/08/26 01:51:35;;;;;;;;;;;;;;;19.12;58.98;99842.69;4915789;29;19935;-82
2022/08/26 01:54:04;;;;;;;;;;;;;;;19.14;59.07;99842.38;4900137;29;19990;-81
2022/08/26 01:56:31;;;;;;;;;;;;;;;19.14;58.90;99840.50;4915788;29;20478;-83
2022/08/26 01:58:59;;;;;;;;;;;;;;;19.18;58.95;99836.06;4933967;29;20198;-83
2022/08/26 02:01:27;;;;;;;;;;;;;;;19.20;58.92;99839.34;4935545;29;20452;-82
2022/08/26 02:04:01;;;;;;;;;;;;;;;19.19;58.95;99843.19;4935704;29;20309;-83
2022/08/26 02:06:28;;;;;;;;;;;;;;;19.23;58.74;99848.91;4936775;29;20315;-84
2022/08/26 02:08:55;;;;;;;;;;;;;;;19.21;58.84;99843.72;4935521;29;20543;-83
2022/08/26 02:11:22;;;;;;;;;;;;;;;19.22;58.87;99853.59;4919315;29;19938;-83
2022/08/26 02:13:53;;;;;;;;;;;;;;;19.23;58.77;99851.66;4936760;29;19937;-83
2022/08/26 02:16:21;;;;;;;;;;;;;;;19.22;58.76;99858.25;4935624;29;19930;-82
2022/08/26 02:18:49;;;;;;;;;;;;;;;19.20;58.83;99852.22;4935235;29;19978;-83
2022/08/26 02:21:19;;;;;;;;;;;;;;;19.16;58.87;99851.94;4935057;29;19931;-82
2022/08/26 02:23:46;;;;;;;;;;;;;;;19.13;58.84;99855.25;4935375;29;20037;-83
2022/08/26 02:26:16;;;;;;;;;;;;;;;19.10;58.86;99858.56;4936130;29;19934;-82
2022/08/26 02:29:03;;;;;;;;;;;;;;;19.10;58.75;99855.00;4935083;29;19990;-83
2022/08/26 02:31:33;;;;;;;;;;;;;;;19.08;58.67;99851.72;4935971;29;19931;-84
2022/08/26 02:34:08;;;;;;;;;;;;;;;19.01;59.00;99852.81;4935975;29;20457;-84
2022/08/26 02:36:36;;;;;;;;;;;;;;;18.96;59.06;99850.13;4936078;29;19938;-84
2022/08/26 02:39:07;;;;;;;;;;;;;;;18.94;59.18;99857.81;4919639;29;19930;-83
2022/08/26 02:41:34;;;;;;;;;;;;;;;18.89;59.05;99852.34;4919240;29;19942;-83
2022/08/26 02:44:10;;;;;;;;;;;;;;;18.87;59.18;99859.19;4935919;29;19970;-84
2022/08/26 02:46:38;;;;;;;;;;;;;;;18.84;59.40;99860.56;4936037;29;19930;-83
2022/08/26 02:49:05;;;;;;;;;;;;;;;18.81;59.44;99855.63;4919361;29;20368;-84
2022/08/26 02:51:32;;;;;;;;;;;;;;;18.82;59.35;99862.75;4936848;29;19974;-83
2022/08/26 02:53:59;;;;;;;;;;;;;;;18.81;59.29;99863.84;4936205;29;20310;-83
2022/08/26 02:56:27;;;;;;;;;;;;;;;18.81;59.41;99867.41;4919123;29;20202;-82
2022/08/26 02:58:54;;;;;;;;;;;;;;;18.77;59.39;99860.03;4919050;29;20437;-83
2022/08/26 03:01:22;;;;;;;;;;;;;;;18.74;59.43;99857.84;4935468;29;19931;-83
2022/08/26 03:03:48;;;;;;;;;;;;;;;18.70;59.69;99865.75;4918884;29;19935;-82
2022/08/26 03:06:15;;;;;;;;;;;;;;;18.72;59.77;99868.22;4918563;29;20309;-83
2022/08/26 03:08:42;;;;;;;;;;;;;;;18.75;59.79;99864.94;4935558;29;19937;-84
2022/08/26 03:11:10;;;;;;;;;;;;;;;18.77;59.57;99855.38;4934262;29;19986;-83
2022/08/26 03:13:37;;;;;;;;;;;;;;;18.79;59.54;99860.59;4935276;29;19931;-82
2022/08/26 03:16:04;;;;;;;;;;;;;;;18.81;59.68;99866.56;4935374;29;20029;-83
2022/08/26 03:18:31;;;;;;;;;;;;;;;18.79;59.58;99868.78;4935206;29;20302;-83
2022/08/26 03:21:04;;;;;;;;;;;;;;;18.86;59.36;99871.22;4918621;29;19930;-82
2022/08/26 03:23:31;;;;;;;;;;;;;;;19.01;58.59;99868.44;4935003;29;19930;-82
2022/08/26 03:26:00;;;;;;;;;;;;;;;19.08;58.30;99871.69;4935341;29;19930;-83
2022/08/26 03:28:27;;;;;;;;;;;;;;;19.19;57.66;99876.03;4917334;29;19978;-82
2022/08/26 03:30:54;;;;;;;;;;;;;;;19.42;56.49;99874.56;4935258;29;19989;-83
2022/08/26 03:33:21;;;;;;;;;;;;;;;19.64;55.55;99876.06;4918219;29;19935;-83
2022/08/26 03:35:48;;;;;;;;;;;;;;;19.83;54.69;99879.00;4935258;29;19986;-84
2022/08/26 03:38:17;;;;;;;;;;;;;;;19.94;54.45;99877.81;4935056;29;19934;-82
2022/08/26 03:40:44;;;;;;;;;;;;;;;19.99;53.96;99877.75;4917888;29;20374;-83
2022/08/26 03:43:11;;;;;;;;;;;;;;;19.98;54.23;99878.88;4934664;29;19931;-83
2022/08/26 03:45:39;;;;;;;;;;;;;;;20.04;53.95;99874.19;4933831;29;19931;-83
2022/08/26 03:48:17;;;;;;;;;;;;;;;20.11;53.71;99877.41;4935046;29;20313;-82
2022/08/26 03:50:44;;;;;;;;;;;;;;;20.19;53.42;99879.53;4917860;29;20321;-82
2022/08/26 03:53:14;;;;;;;;;;;;;;;20.27;53.24;99878.09;4934368;29;19937;-82
2022/08/26 03:55:42;;;;;;;;;;;;;;;20.34;53.22;99878.59;4934639;29;19931;-82
2022/08/26 03:58:09;;;;;;;;;;;;;;;20.39;53.18;99884.00;4932945;29;20416;-81
2022/08/26 04:00:37;;;;;;;;;;;;;;;20.41;53.52;99886.44;4934612;29;19931;-83
2022/08/26 04:03:04;;;;;;;;;;;;;;;20.47;53.54;99888.06;4934730;29;19937;-83
2022/08/26 04:05:36;;;;;;;;;;;;;;;20.55;53.25;99885.53;4934756;29;19931;-82
2022/08/26 04:08:04;;;;;;;;;;;;;;;20.62;52.93;99879.72;4934986;29;19937;-83
2022/08/26 04:10:32;;;;;;;;;;;;;;;20.71;52.72;99885.38;4901024;29;19931;-85
2022/08/26 04:12:59;;;;;;;;;;;;;;;20.80;52.42;99889.13;4934553;29;19931;-82
2022/08/26 04:15:26;;;;;;;;;;;;;;;20.89;51.88;99889.28;4917247;29;19930;-83
2022/08/26 04:17:53;;;;;;;;;;;;;;;20.98;51.56;99879.31;4934355;29;20287;-84
2022/08/26 04:20:23;;;;;;;;;;;;;;;21.09;51.24;99880.84;4917493;29;20421;-83
2022/08/26 04:22:51;;;;;;;;;;;;;;;21.20;50.65;99879.59;4933081;29;20310;-83
2022/08/26 04:25:17;;;;;;;;;;;;;;;21.34;50.54;99878.88;4917267;29;20382;-83
2022/08/26 04:27:46;;;;;;;;;;;;;;;21.45;50.47;99877.66;4917477;29;19946;-84
2022/08/26 04:30:15;;;;;;;;;;;;;;;21.58;50.45;99876.13;4934022;29;20381;-83
2022/08/26 04:32:42;;;;;;;;;;;;;;;21.69;50.18;99883.09;4934327;29;19931;-84
2022/08/26 04:35:09;;;;;;;;;;;;;;;21.82;50.07;99881.50;4933855;29;19986;-83
2022/08/26 04:37:36;;;;;;;;;;;;;;;21.92;49.80;99872.31;4934420;29;19939;-83
2022/08/26 04:40:04;;;;;;;;;;;;;;;22.00;49.80;99877.13;4936847;29;20322;-84
2022/08/26 04:42:32;;;;;;;;;;;;;;;22.08;50.16;99882.75;4938309;29;19930;-82
2022/08/26 04:45:12;;;;;;;;;;;;;;;22.15;50.31;99876.88;4919427;29;20033;-84
2022/08/26 04:47:39;;;;;;;;;;;;;;;22.21;50.11;99883.16;4938016;29;19938;-84
2022/08/26 04:50:07;;;;;;;;;;;;;;;22.23;50.15;99878.97;4881188;29;19962;-83
2022/08/26 04:52:36;;;;;;;;;;;;;;;22.36;49.73;99879.28;4937928;29;20074;-83
2022/08/26 04:55:04;;;;;;;;;;;;;;;22.47;49.65;99884.31;4904897;29;19930;-83
2022/08/26 04:57:33;;;;;;;;;;;;;;;22.59;49.56;99880.28;4936228;29;19985;-83
2022/08/26 05:00:02;;;;;;;;;;;;;;;22.73;48.97;99879.16;4938481;29;20461;-83
2022/08/26 05:02:30;;;;;;;;;;;;;;;22.86;48.84;99874.78;4934579;29;20055;-84
2022/08/26 05:04:58;;;;;;;;;;;;;;;23.01;48.74;99886.66;4587441;28;10000336;-84
2022/08/26 05:07:25;;;;;;;;;;;;;;;23.12;47.80;99882.59;4948635;29;19942;-83
2022/08/26 05:09:52;;;;;;;;;;;;;;;23.25;47.19;99894.72;4932738;29;19931;-84
2022/08/26 05:12:20;;;;;;;;;;;;;;;23.31;46.03;99896.22;4915087;29;19931;-83
2022/08/26 05:14:49;;;;;;;;;;;;;;;23.37;46.27;99900.53;4932012;29;19990;-83
2022/08/26 05:17:17;;;;;;;;;;;;;;;23.46;46.28;99900.59;4932091;29;19931;-83
2022/08/26 05:19:44;;;;;;;;;;;;;;;23.61;46.14;99900.25;4932541;29;19931;-83
2022/08/26 05:22:11;;;;;;;;;;;;;;;23.74;45.89;99904.94;4934165;29;19930;-83
2022/08/26 05:25:06;;;;;;;;;;;;;;;23.83;46.19;99901.47;4934112;29;19931;-85
2022/08/26 05:27:39;;;;;;;;;;;;;;;23.97;46.12;99899.47;4911822;29;20198;-83
2022/08/26 05:30:07;;;;;;;;;;;;;;;24.10;46.00;99895.81;4916424;29;19937;-82
2022/08/26 05:32:34;;;;;;;;;;;;;;;24.19;45.81;99899.47;4932446;29;19931;-84
2022/08/26 05:35:01;;;;;;;;;;;;;;;24.28;45.31;99904.22;4922018;29;20325;-82
2022/08/26 05:37:35;;;;;;;;;;;;;;;24.41;44.95;99900.59;4922783;29;19931;-85
2022/08/26 05:40:03;;;;;;;;;;;;;;;24.54;44.82;99907.22;4925597;29;19962;-82
2022/08/26 05:42:58;;;;;;;;;;;;;;;24.68;44.59;99907.91;4910667;29;19938;-85
2022/08/26 05:45:30;;;;;;;;;;;;;;;24.84;44.40;99908.34;4916130;29;19982;-84
2022/08/26 05:47:57;;;;;;;;;;;;;;;25.01;44.35;99910.34;4920089;29;20429;-87
2022/08/26 05:50:25;;;;;;;;;;;;;;;25.12;43.81;99897.88;4933590;29;19954;-87
2022/08/26 05:52:51;;;;;;;;;;;;;;;25.27;43.39;99905.75;4923548;29;20390;-84
2022/08/26 05:55:19;;;;;;;;;;;;;;;25.43;42.75;99903.34;4922692;29;19938;-83
2022/08/26 05:57:49;;;;;;;;;;;;;;;25.57;42.43;99905.97;4928289;29;20274;-85
2022/08/26 06:00:15;;;;;;;;;;;;;;;25.70;42.58;99901.44;4919626;29;20388;-83
2022/08/26 06:02:43;;;;;;;;;;;;;;;25.81;41.19;99899.19;4927943;29;20033;-85
2022/08/26 06:05:22;;;;;;;;;;;;;;;25.88;40.35;99900.34;4897863;29;20358;-85
2022/08/26 06:10:47;;;;;;;;;;;;;;;26.03;38.13;99907.34;4923286;29;20482;-85
2022/08/26 06:13:22;;;;;;;;;;;;;;;26.15;38.35;99913.00;4906706;29;20200;-86
2022/08/26 06:15:58;;;;;;;;;;;;;;;26.32;38.45;99900.31;4911876;29;19930;-81
2022/08/26 06:18:35;;;;;;;;;;;;;;;26.50;38.46;99907.41;4929856;29;20057;-84
2022/08/26 06:21:22;;;;;;;;;;;;;;;26.62;38.19;99904.00;4927292;29;20025;-82
2022/08/26 06:26:36;;;;;;;;;;;;;;;26.81;36.35;99903.63;4929138;29;20401;-81
2022/08/26 06:29:08;;;;;;;;;;;;;;;26.90;35.80;99903.59;4932059;29;20405;-83
2022/08/26 06:31:35;;;;;;;;;;;;;;;26.97;35.59;99913.00;4929945;29;19931;-82
2022/08/26 06:34:05;;;;;;;;;;;;;;;27.12;35.87;99908.88;4932491;29;20324;-82
2022/08/26 06:36:38;;;;;;;;;;;;;;;27.33;35.65;99899.84;4898646;29;20076;-84
2022/08/26 06:39:08;;;;;;;;;;;;;;;27.58;35.51;99893.31;4900566;29;20413;-83
2022/08/26 06:41:36;;;;;;;;;;;;;;;27.55;34.46;99902.31;4915972;29;20324;-81
2022/08/26 06:44:15;;;;;;;;;;;;;;;27.62;34.84;99907.28;4914058;29;19942;-83
2022/08/26 06:46:42;;;;;;;;;;;;;;;27.68;34.33;99905.97;4935592;29;19967;-85
2022/08/26 06:49:10;;;;;;;;;;;;;;;27.72;34.37;99908.84;4936665;29;19931;-84
2022/08/26 06:51:37;;;;;;;;;;;;;;;27.86;34.17;99906.66;4934686;29;19934;-83
2022/08/26 06:54:04;;;;;;;;;;;;;;;28.01;34.61;99908.81;4921740;29;19973;-85
2022/08/26 06:56:33;;;;;;;;;;;;;;;27.99;33.78;99902.78;4920129;29;19930;-84
2022/08/26 06:59:00;;;;;;;;;;;;;;;28.00;33.53;99903.59;4936280;29;19954;-84
2022/08/26 07:01:29;;;;;;;;;;;;;;;28.05;33.65;99908.94;4918344;29;20441;-85
2022/08/26 07:03:58;;;;;;;;;;;;;;;28.11;33.44;99904.81;4918830;29;20378;-86
2022/08/26 07:06:26;;;;;;;;;;;;;;;28.23;33.90;99901.25;4918496;29;19930;-86
2022/08/26 07:09:03;;;;;;;;;;;;;;;28.38;33.64;99908.94;4902720;29;20293;-86
2022/08/26 07:11:32;;;;;;;;;;;;;;;28.50;33.35;99900.69;4919498;29;19941;-86
2022/08/26 07:13:59;;;;;;;;;;;;;;;28.56;32.78;99906.84;4903518;29;19937;-86
2022/08/26 07:16:27;;;;;;;;;;;;;;;28.50;32.72;99903.47;4905503;29;19935;-85
2022/08/26 07:18:58;;;;;;;;;;;;;;;28.46;32.50;99902.56;4940728;29;19958;-86
2022/08/26 07:21:38;;;;;;;;;;;;;;;28.51;32.02;99904.28;4895758;29;19934;-85
2022/08/26 07:24:06;;;;;;;;;;;;;;;28.57;32.11;99902.13;4909475;29;19931;-86
2022/08/26 07:26:38;;;;;;;;;;;;;;;28.66;32.56;99889.75;4874047;29;20448;-86
2022/08/26 07:29:12;;;;;;;;;;;;;;;28.81;32.28;99904.09;4918040;29;20003;-86
2022/08/26 07:31:46;;;;;;;;;;;;;;;28.90;32.31;99904.81;4935059;29;19931;-86
2022/08/26 07:34:19;;;;;;;;;;;;;;;29.09;32.43;99893.16;4908655;29;19931;-87
2022/08/26 07:36:50;;;;;;;;;;;;;;;29.40;31.99;99889.81;4918632;29;19931;-86
2022/08/26 07:39:19;;;;;;;;;;;;;;;29.63;32.05;99894.84;4949310;29;19930;-86
2022/08/26 07:41:46;;;;;;;;;;;;;;;29.66;31.33;99897.75;4933837;29;20037;-86
2022/08/26 07:44:27;;;;;;;;;;;;;;;29.70;31.08;99895.09;4881252;29;19938;-87
2022/08/26 07:47:09;;;;;;;;;;;;;;;29.65;30.47;99895.28;4892573;29;20522;-85
2022/08/26 07:49:53;;;;;;;;;;;;;;;29.79;30.53;99893.78;4894463;29;19938;-85
2022/08/26 07:52:20;;;;;;;;;;;;;;;29.97;30.58;99897.09;4894461;29;19932;-86
2022/08/26 07:54:52;;;;;;;;;;;;;;;30.10;30.11;99905.38;4863876;29;19974;-87
2022/08/26 07:57:19;;;;;;;;;;;;;;;30.22;29.31;99892.22;4878504;29;19932;-86
2022/08/26 07:59:46;;;;;;;;;;;;;;;30.40;29.34;99880.81;4894990;29;19935;-86
2022/08/26 08:02:13;;;;;;;;;;;;;;;30.62;29.67;99894.13;4894215;29;19939;-85
2022/08/26 08:04:41;;;;;;;;;;;;;;;30.52;28.13;99889.09;4878735;29;19973;-85
2022/08/26 08:07:10;;;;;;;;;;;;;;;30.65;28.64;99890.63;4894429;29;19967;-85
2022/08/26 08:09:37;;;;;;;;;;;;;;;30.90;27.92;99876.56;4863413;29;19943;-85
2022/08/26 08:12:06;;;;;;;;;;;;;;;31.11;28.36;99887.41;4892699;29;20431;-84
2022/08/26 08:14:39;;;;;;;;;;;;;;;31.07;28.14;99884.56;4901629;29;19931;-82
2022/08/26 08:17:07;;;;;;;;;;;;;;;31.07;28.00;99892.09;4578144;28;10000427;-86
2022/08/26 08:19:34;;;;;;;;;;;;;;;31.28;27.68;99878.66;4919730;29;19979;-85
2022/08/26 08:22:05;;;;;;;;;;;;;;;31.37;27.35;99886.81;4920037;29;19931;-85
2022/08/26 08:24:43;;;;;;;;;;;;;;;31.72;27.07;99878.47;4929259;29;19953;-83
2022/08/26 08:27:15;;;;;;;;;;;;;;;32.15;26.88;99878.56;4931665;29;19930;-84
2022/08/26 08:29:47;;;;;;;;;;;;;;;32.58;26.44;99885.78;4932328;29;19935;-84
2022/08/26 08:32:14;;;;;;;;;;;;;;;32.88;26.36;99887.09;4933529;29;19931;-85
2022/08/26 08:34:41;;;;;;;;;;;;;;;32.94;26.29;99892.00;4934219;29;20418;-85
2022/08/26 08:37:13;;;;;;;;;;;;;;;32.93;26.06;99886.78;4934440;29;19986;-86
2022/08/26 08:39:40;;;;;;;;;;;;;;;33.17;26.01;99878.03;4933904;29;19986;-86
2022/08/26 08:42:18;;;;;;;;;;;;;;;33.26;25.96;99876.94;4917146;29;20013;-85
2022/08/26 08:44:49;;;;;;;;;;;;;;;33.61;25.84;99873.88;4902016;29;20454;-86
2022/08/26 08:47:20;;;;;;;;;;;;;;;33.99;25.20;99866.34;4932423;29;20469;-85
2022/08/26 08:49:46;;;;;;;;;;;;;;;34.07;24.98;99863.25;4933847;29;20314;-85
2022/08/26 08:52:23;;;;;;;;;;;;;;;34.37;24.48;99873.59;4933785;29;19931;-86
2022/08/26 08:54:52;;;;;;;;;;;;;;;34.19;24.16;99870.59;4933871;29;20398;-86
2022/08/26 08:57:23;;;;;;;;;;;;;;;33.20;24.62;99870.88;4932556;29;19939;-85
2022/08/26 08:59:52;;;;;;;;;;;;;;;32.50;25.72;99880.44;4933047;29;20037;-85
2022/08/26 09:02:22;;;;;;;;;;;;;;;32.25;25.61;99861.22;4932691;29;20303;-87
2022/08/26 09:04:53;;;;;;;;;;;;;;;32.98;25.28;99873.28;4934514;29;19934;-85
2022/08/26 09:07:35;;;;;;;;;;;;;;;33.81;24.35;99866.94;4901348;29;19931;-85
2022/08/26 09:10:22;;;;;;;;;;;;;;;34.39;23.16;99860.00;4933989;29;19931;-85
2022/08/26 09:12:50;;;;;;;;;;;;;;;34.74;22.72;99867.16;4934170;29;19931;-85
2022/08/26 09:15:19;;;;;;;;;;;;;;;34.92;22.36;99861.72;4933848;29;20478;-85
2022/08/26 09:17:46;;;;;;;;;;;;;;;35.18;22.26;99860.72;4933066;29;19946;-85
2022/08/26 09:20:32;;;;;;;;;;;;;;;35.48;22.01;99856.91;4933995;29;19955;-84
2022/08/26 09:22:59;;;;;;;;;;;;;;;35.66;21.86;99855.00;4934138;29;19931;-86
2022/08/26 09:25:25;;;;;;;;;;;;;;;35.87;21.52;99848.66;4935301;29;20255;-84
2022/08/26 09:27:54;;;;;;;;;;;;;;;36.03;20.90;99851.94;4937355;29;20373;-85
2022/08/26 09:30:21;;;;;;;;;;;;;;;36.28;20.64;99856.03;4937172;29;20410;-84
2022/08/26 09:32:59;;;;;;;;;;;;;;;36.44;20.27;99850.84;4920479;29;19939;-85
2022/08/26 09:35:31;;;;;;;;;;;;;;;36.31;20.18;99852.41;4936911;29;19931;-84
2022/08/26 09:37:58;;;;;;;;;;;;;;;36.41;20.10;99849.63;4937272;29;19986;-85
2022/08/26 09:40:25;;;;;;;;;;;;;;;36.45;19.73;99838.38;4936882;29;19970;-85
2022/08/26 09:43:08;;;;;;;;;;;;;;;36.51;19.66;99841.59;4920004;29;20029;-85
2022/08/26 09:45:35;;;;;;;;;;;;;;;36.61;20.06;99852.88;4936893;29;19935;-86
2022/08/26 09:48:03;;;;;;;;;;;;;;;36.90;19.96;99847.25;4920344;29;19938;-85
2022/08/26 09:50:31;;;;;;;;;;;;;;;37.21;19.92;99837.19;4934643;29;19930;-85
2022/08/26 09:53:18;;;;;;;;;;;;;;;37.35;19.38;99850.44;4920674;29;19935;-85
2022/08/26 09:56:13;;;;;;;;;;;;;;;36.84;18.56;99849.69;4920954;29;19931;-84
2022/08/26 09:58:41;;;;;;;;;;;;;;;36.28;18.70;99850.41;4935941;29;19958;-84
2022/08/26 10:01:23;;;;;;;;;;;;;;;36.18;18.77;99838.75;4887335;29;19993;-84
2022/08/26 10:03:51;;;;;;;;;;;;;;;36.24;17.94;99825.91;4930109;29;19930;-81
2022/08/26 10:06:19;;;;;;;;;;;;;;;36.32;18.07;99835.16;4919295;29;19937;-86
2022/08/26 10:08:57;;;;;;;;;;;;;;;36.74;18.31;99828.00;4828119;28;10000577;-84
2022/08/26 10:11:36;;;;;;;;;;;;;;;37.21;18.41;99834.38;4907436;29;19931;-85
2022/08/26 10:14:13;;;;;;;;;;;;;;;37.68;18.25;99823.00;4932181;29;20005;-83
2022/08/26 10:16:58;;;;;;;;;;;;;;;37.68;17.79;99823.00;4932694;29;19931;-83
2022/08/26 10:19:32;;;;;;;;;;;;;;;38.47;17.35;99828.22;4931909;29;19930;-85
2022/08/26 10:22:22;;;;;;;;;;;;;;;38.39;16.53;99833.06;4931291;29;19934;-84
2022/08/26 10:24:52;;;;;;;;;;;;;;;38.37;16.48;99819.38;4932836;29;19934;-84
2022/08/26 10:27:27;;;;;;;;;;;;;;;38.30;16.87;99822.25;4931699;29;19931;-83
2022/08/26 10:29:56;;;;;;;;;;;;;;;38.75;16.96;99822.31;4916177;29;19934;-87
2022/08/26 10:32:27;;;;;;;;;;;;;;;39.09;16.90;99813.16;4919374;29;19931;-85
2022/08/26 10:34:54;;;;;;;;;;;;;;;38.98;16.09;99812.47;4912789;29;19930;-86
2022/08/26 10:37:24;;;;;;;;;;;;;;;39.43;15.97;99824.50;4934471;29;19930;-85
2022/08/26 10:40:09;;;;;;;;;;;;;;;39.07;15.68;99804.28;4949043;28;19966;-86
2022/08/26 10:42:47;;;;;;;;;;;;;;;38.62;15.40;99804.31;4935293;29;20349;-85
2022/08/26 10:45:14;;;;;;;;;;;;;;;39.00;15.45;99805.19;4934336;29;20025;-84
2022/08/26 10:47:46;;;;;;;;;;;;;;;38.94;16.00;99798.38;4941815;29;19937;-84
2022/08/26 10:50:18;;;;;;;;;;;;;;;39.40;16.09;99799.09;4922950;29;19932;-86
2022/08/26 10:52:53;;;;;;;;;;;;;;;38.85;16.27;99792.41;4930723;29;20014;-84
2022/08/26 10:55:42;;;;;;;;;;;;;;;37.65;17.44;99793.66;4937602;29;19986;-85
2022/08/26 10:58:09;;;;;;;;;;;;;;;37.05;17.51;99809.50;4936015;29;19986;-85
2022/08/26 11:03:45;;;;;;;;;;;;;;;38.24;16.86;99794.94;4935898;29;20357;-85
2022/08/26 11:06:18;;;;;;;;;;;;;;;39.06;16.09;99791.41;4950843;29;19969;-86
2022/08/26 11:08:56;;;;;;;;;;;;;;;39.01;16.03;99783.41;4934374;29;20032;-86
2022/08/26 11:11:40;;;;;;;;;;;;;;;39.42;15.74;99786.16;4934305;29;20398;-86
2022/08/26 11:14:07;;;;;;;;;;;;;;;38.14;16.63;99785.34;4931120;29;19931;-86
2022/08/26 11:16:38;;;;;;;;;;;;;;;39.16;16.32;99778.41;4934003;29;19938;-86
2022/08/26 11:19:29;;;;;;;;;;;;;;;40.00;15.86;99779.78;4934378;29;19926;-86
2022/08/26 11:22:26;;;;;;;;;;;;;;;40.96;15.22;99780.22;4933082;29;19973;-86
2022/08/26 11:24:53;;;;;;;;;;;;;;;41.83;14.17;99787.78;4934317;29;19962;-86
2022/08/26 11:27:37;;;;;;;;;;;;;;;41.92;13.86;99776.66;4928407;29;19946;-86
2022/08/26 11:30:16;;;;;;;;;;;;;;;40.65;14.25;99769.03;4934570;29;19931;-85
2022/08/26 11:32:54;;;;;;;;;;;;;;;38.39;16.11;99771.06;4935129;29;19931;-85
2022/08/26 11:35:24;;;;;;;;;;;;;;;36.97;16.59;99781.75;4934817;29;19962;-84
2022/08/26 11:37:55;;;;;;;;;;;;;;;36.16;17.11;99772.91;4934465;29;19962;-86
2022/08/26 11:40:22;;;;;;;;;;;;;;;35.21;17.19;99772.16;4935020;29;20386;-86
2022/08/26 11:42:57;;;;;;;;;;;;;;;34.56;18.03;99765.28;4917995;29;19930;-86
2022/08/26 11:45:25;;;;;;;;;;;;;;;34.22;18.16;99769.00;4917275;29;19958;-86
2022/08/26 11:47:53;;;;;;;;;;;;;;;34.19;18.27;99763.38;4932099;29;19938;-85
2022/08/26 11:50:27;;;;;;;;;;;;;;;33.80;18.92;99758.13;4922712;29;19931;-88
2022/08/26 11:53:04;;;;;;;;;;;;;;;33.98;18.89;99759.16;4915958;29;19931;-85
2022/08/26 11:55:34;;;;;;;;;;;;;;;34.59;18.66;99764.53;4898787;29;19935;-85
2022/08/26 11:58:03;;;;;;;;;;;;;;;34.16;19.04;99761.31;4916063;29;20041;-86
2022/08/26 12:00:34;;;;;;;;;;;;;;;34.36;19.12;99759.09;4914136;29;19931;-86
2022/08/26 12:03:03;;;;;;;;;;;;;;;33.90;19.43;99757.44;4934757;29;19942;-85
2022/08/26 12:05:34;;;;;;;;;;;;;;;33.81;20.05;99760.56;4917710;29;20302;-84
2022/08/26 12:08:07;;;;;;;;;;;;;;;33.91;19.75;99753.47;4931256;29;19931;-85
2022/08/26 12:10:36;;;;;;;;;;;;;;;33.95;19.79;99753.50;4897767;29;20025;-85
2022/08/26 12:13:04;;;;;;;;;;;;;;;34.10;19.74;99760.88;4912068;29;20334;-85
2022/08/26 12:15:31;;;;;;;;;;;;;;;35.97;18.45;99758.03;4929309;29;20364;-87
2022/08/26 12:18:15;;;;;;;;;;;;;;;37.63;17.19;99753.00;4917461;29;19930;-85
2022/08/26 12:21:15;;;;;;;;;;;;;;;39.54;16.35;99744.50;4904720;29;20025;-87
2022/08/26 12:23:43;;;;;;;;;;;;;;;41.09;15.31;99743.63;4932961;29;19930;-84
2022/08/26 12:26:45;;;;;;;;;;;;;;;41.93;14.57;99742.25;4931559;29;19930;-86
2022/08/26 12:29:26;;;;;;;;;;;;;;;41.07;14.35;99749.69;4906480;29;19938;-87
2022/08/26 12:32:07;;;;;;;;;;;;;;;40.00;14.21;99734.56;4903768;29;19938;-86
2022/08/26 12:34:34;;;;;;;;;;;;;;;40.54;14.54;99733.69;4878128;29;19970;-87
2022/08/26 12:37:01;;;;;;;;;;;;;;;39.97;15.09;99735.44;4893977;29;19939;-86
2022/08/26 12:39:31;;;;;;;;;;;;;;;40.12;14.63;99736.00;4901848;29;20452;-87
2022/08/26 12:41:59;;;;;;;;;;;;;;;41.36;14.03;99737.81;4912173;29;19935;-86
2022/08/26 12:44:32;;;;;;;;;;;;;;;41.91;13.43;99726.88;4896693;29;20054;-84
2022/08/26 12:47:07;;;;;;;;;;;;;;;42.27;12.90;99732.50;4896626;29;20066;-86
2022/08/26 12:49:38;;;;;;;;;;;;;;;41.76;12.97;99734.94;4884846;29;19975;-85
2022/08/26 12:52:05;;;;;;;;;;;;;;;41.75;13.36;99733.31;4881662;29;19931;-85
2022/08/26 12:57:30;;;;;;;;;;;;;;;41.70;13.24;99734.63;4896765;29;19931;-88
2022/08/26 13:00:18;;;;;;;;;;;;;;;41.11;12.95;99732.66;4604501;29;9999865;-86
2022/08/26 13:02:47;;;;;;;;;;;;;;;40.73;13.64;99732.97;4903535;29;20038;-87
2022/08/26 13:05:21;;;;;;;;;;;;;;;41.32;13.17;99725.75;4933596;29;20297;-87
2022/08/26 13:08:11;;;;;;;;;;;;;;;40.91;13.10;99724.13;4916835;29;19930;-87
2022/08/26 13:10:43;;;;;;;;;;;;;;;40.85;12.99;99715.34;4929711;29;20018;-87
2022/08/26 13:13:15;;;;;;;;;;;;;;;40.89;13.04;99710.41;4915234;29;19935;-87
2022/08/26 13:15:43;;;;;;;;;;;;;;;40.99;13.51;99719.13;4930594;29;19931;-86
2022/08/26 13:18:10;;;;;;;;;;;;;;;41.46;13.35;99710.50;4916814;29;19986;-86